Carnival Splendor — 3EUS — position and weather

sailwx.info

Track history (hours):
 
Tides and Currents Weather Stations Pressure Air Temp Water Temp Dewpoint Dewpoint Depression Visibility Wind Speed Wind Dir Waves Ship Positions

Carnival Splendor

Last reported at 2015-Sep-01 10:32 UTC. Time now 2015-Sep-02 23:56 UTC.
Position N 28°25' W 080°37'.

Length 289 m; draft 8.3 m.

Type: Ship. MMSI: 372808000.

Date/timePositionNaut miles runAvg speedWind from/ knotsBaromVisibWave heightAir tempDewpointWater temp
2015-Sep-01 10:32N 28°25' W 080°37'34212.4
2015-Aug-31 07:00N 33°00' W 076°42'8912.0 150 / 251018.0 2.2 28.019.0
2015-Aug-30 23:33N 34°11' W 075°39'3113.4
2015-Aug-30 21:14N 34°37' W 075°17'812.2
2015-Aug-30 20:34N 34°43' W 075°11'1312.6
2015-Aug-30 19:33N 34°54' W 075°02'1714.0
2015-Aug-30 18:20N 35°10' W 074°55'18316.8
2015-Aug-30 07:24N 38°10' W 074°13'1517.2
2015-Aug-30 06:33N 38°25' W 074°10'1916.7
2015-Aug-30 05:25N 38°43' W 074°06'615.0
2015-Aug-30 05:00N 38°48' W 074°00'1021.9 250 / 151020.010.8 2.024.013.025.0
2015-Aug-30 04:33N 38°57' W 074°02'1816.3
2015-Aug-30 03:28N 39°15' W 073°58'1415.9
2015-Aug-30 02:33N 39°29' W 073°55'1615.6
2015-Aug-30 01:33N 39°44' W 073°52'4314.4
2015-Aug-29 22:33N 40°28' W 073°51'1312.7
2015-Aug-29 21:33N 40°37' W 074°03'9 9.2
2015-Aug-29 20:31N 40°46' W 073°60'0 0.0
2015-Aug-29 19:31N 40°46' W 073°60'0 0.0
2015-Aug-29 18:31N 40°46' W 073°60'0 0.0
2015-Aug-29 17:33N 40°46' W 073°60'0 0.0
2015-Aug-29 16:33N 40°46' W 073°60'0 0.0
2015-Aug-29 15:32N 40°46' W 073°60'0 0.0
2015-Aug-29 14:32N 40°46' W 073°60'0 0.0
2015-Aug-29 13:31N 40°46' W 073°60'0 0.0
2015-Aug-29 12:31N 40°46' W 073°60'0 0.0
2015-Aug-29 11:31N 40°46' W 073°60'0 0.0
2015-Aug-29 10:33N 40°46' W 073°60'3 3.0
2015-Aug-29 09:33N 40°43' W 074°01'1110.6
2015-Aug-29 08:34N 40°33' W 074°01'1312.6
2015-Aug-29 07:33N 40°27' W 073°47'1414.2
2015-Aug-29 06:33N 40°28' W 073°28'23416.6
2015-Aug-28 16:27N 40°45' W 068°20'30518.1
2015-Aug-27 23:33N 44°21' W 063°28'1514.6
2015-Aug-27 22:33N 44°35' W 063°32'3 3.2
2015-Aug-27 21:32N 44°38' W 063°34'0 0.0
2015-Aug-27 20:26N 44°38' W 063°34'0 0.0
2015-Aug-27 19:31N 44°38' W 063°34'0 0.0
2015-Aug-27 18:28N 44°38' W 063°34'0 0.0
2015-Aug-27 17:33N 44°38' W 063°34'0 0.0
2015-Aug-27 16:30N 44°38' W 063°34'0 0.0
2015-Aug-27 15:33N 44°38' W 063°34'0 0.0
2015-Aug-27 14:33N 44°38' W 063°34'0 0.0
2015-Aug-27 13:33N 44°38' W 063°34'1 0.7
2015-Aug-27 12:33N 44°38' W 063°33'10 9.9
2015-Aug-27 11:33N 44°29' W 063°28'1413.8
2015-Aug-27 10:33N 44°15' W 063°32'251 6.1
2015-Aug-25 17:27N 41°14' W 067°28'1415.1
2015-Aug-25 16:33N 41°06' W 067°43'1815.4
2015-Aug-25 15:22N 40°55' W 068°02'1615.8
2015-Aug-25 14:20N 40°46' W 068°20'1215.9
2015-Aug-25 13:33N 40°39' W 068°33'1716.5
2015-Aug-25 12:33N 40°33' W 068°54'1616.5
2015-Aug-25 11:33N 40°27' W 069°14'1616.5
2015-Aug-25 10:33N 40°26' W 069°35'1616.2
2015-Aug-25 09:33N 40°25' W 069°57'1615.9
2015-Aug-25 08:33N 40°25' W 070°18'1615.8
2015-Aug-25 07:33N 40°25' W 070°38'1616.0
2015-Aug-25 06:34N 40°24' W 070°59'1616.3
2015-Aug-25 05:33N 40°24' W 071°21'1616.3
2015-Aug-25 04:34N 40°23' W 071°42'1616.1
2015-Aug-25 03:34N 40°23' W 072°03'1616.2
2015-Aug-25 02:33N 40°23' W 072°24'1616.2
2015-Aug-25 01:33N 40°22' W 072°46'1615.9
2015-Aug-25 00:33N 40°22' W 073°07'1616.0
2015-Aug-24 23:34N 40°24' W 073°27'1615.5
2015-Aug-24 22:33N 40°27' W 073°47'1313.1
2015-Aug-24 21:34N 40°34' W 074°02'1212.0
2015-Aug-24 20:33N 40°46' W 074°01'1 0.6
2015-Aug-24 19:31N 40°46' W 073°60'0 0.0
2015-Aug-24 18:31N 40°46' W 073°60'0 0.0
2015-Aug-24 17:33N 40°46' W 073°60'0 0.0
2015-Aug-24 16:33N 40°46' W 073°60'0 0.0
2015-Aug-24 15:32N 40°46' W 073°60'0 0.0
2015-Aug-24 14:32N 40°46' W 073°60'0 0.0
2015-Aug-24 13:32N 40°46' W 073°60'0 0.0
2015-Aug-24 12:32N 40°46' W 073°60'0 0.0
2015-Aug-24 11:31N 40°46' W 073°60'1 1.1
2015-Aug-24 10:33N 40°45' W 074°01'1010.1
2015-Aug-24 09:33N 40°35' W 074°02'1313.2
2015-Aug-24 08:33N 40°27' W 073°48'1312.2
2015-Aug-24 07:30N 40°28' W 073°32'2215.5
2015-Aug-24 06:07N 40°30' W 073°03'915.9
2015-Aug-24 05:32N 40°30' W 072°51'1717.3
2015-Aug-24 04:33N 40°30' W 072°29'1919.0
2015-Aug-24 03:33N 40°31' W 072°04'1919.1
2015-Aug-24 02:34N 40°31' W 071°39'1919.1
2015-Aug-24 01:33N 40°32' W 071°14'1919.1
2015-Aug-24 00:33N 40°32' W 070°49'1919.1
2015-Aug-23 23:33N 40°33' W 070°24'1918.6
2015-Aug-23 22:32N 40°33' W 069°58'1918.5
2015-Aug-23 21:29N 40°34' W 069°33'1616.7
2015-Aug-23 20:31N 40°35' W 069°12'1515.5
2015-Aug-23 19:32N 40°37' W 068°52'1616.0
2015-Aug-23 18:33N 40°40' W 068°31'1715.7
2015-Aug-23 17:27N 40°50' W 068°13'  
Track history (hours):
 
Tides and Currents Weather Stations Pressure Air Temp Water Temp Dewpoint Dewpoint Depression Visibility Wind Speed Wind Dir Waves Ship Positions

Carnival Splendor

Last reported at 2015-Sep-01 10:32 UTC. Time now 2015-Sep-02 23:56 UTC.
Position N 28°25' W 080°37'.

Length 289 m; draft 8.3 m.

Type: Ship. MMSI: 372808000.

Date/timePositionNaut miles runAvg speedWind from/ knotsBaromVisibWave heightAir tempDewpointWater temp
2015-Sep-01 10:32N 28°25' W 080°37'34212.4
2015-Aug-31 07:00N 33°00' W 076°42'8912.0 150 / 251018.0 2.2 28.019.0
2015-Aug-30 23:33N 34°11' W 075°39'3113.4
2015-Aug-30 21:14N 34°37' W 075°17'812.2
2015-Aug-30 20:34N 34°43' W 075°11'1312.6
2015-Aug-30 19:33N 34°54' W 075°02'1714.0
2015-Aug-30 18:20N 35°10' W 074°55'18316.8
2015-Aug-30 07:24N 38°10' W 074°13'1517.2
2015-Aug-30 06:33N 38°25' W 074°10'1916.7
2015-Aug-30 05:25N 38°43' W 074°06'615.0
2015-Aug-30 05:00N 38°48' W 074°00'1021.9 250 / 151020.010.8 2.024.013.025.0
2015-Aug-30 04:33N 38°57' W 074°02'1816.3
2015-Aug-30 03:28N 39°15' W 073°58'1415.9
2015-Aug-30 02:33N 39°29' W 073°55'1615.6
2015-Aug-30 01:33N 39°44' W 073°52'4314.4
2015-Aug-29 22:33N 40°28' W 073°51'1312.7
2015-Aug-29 21:33N 40°37' W 074°03'9 9.2
2015-Aug-29 20:31N 40°46' W 073°60'0 0.0
2015-Aug-29 19:31N 40°46' W 073°60'0 0.0
2015-Aug-29 18:31N 40°46' W 073°60'0 0.0
2015-Aug-29 17:33N 40°46' W 073°60'0 0.0
2015-Aug-29 16:33N 40°46' W 073°60'0 0.0
2015-Aug-29 15:32N 40°46' W 073°60'0 0.0
2015-Aug-29 14:32N 40°46' W 073°60'0 0.0
2015-Aug-29 13:31N 40°46' W 073°60'0 0.0
2015-Aug-29 12:31N 40°46' W 073°60'0 0.0
2015-Aug-29 11:31N 40°46' W 073°60'0 0.0
2015-Aug-29 10:33N 40°46' W 073°60'3 3.0
2015-Aug-29 09:33N 40°43' W 074°01'1110.6
2015-Aug-29 08:34N 40°33' W 074°01'1312.6
2015-Aug-29 07:33N 40°27' W 073°47'1414.2
2015-Aug-29 06:33N 40°28' W 073°28'23416.6
2015-Aug-28 16:27N 40°45' W 068°20'30518.1
2015-Aug-27 23:33N 44°21' W 063°28'1514.6
2015-Aug-27 22:33N 44°35' W 063°32'3 3.2
2015-Aug-27 21:32N 44°38' W 063°34'0 0.0
2015-Aug-27 20:26N 44°38' W 063°34'0 0.0
2015-Aug-27 19:31N 44°38' W 063°34'0 0.0
2015-Aug-27 18:28N 44°38' W 063°34'0 0.0
2015-Aug-27 17:33N 44°38' W 063°34'0 0.0
2015-Aug-27 16:30N 44°38' W 063°34'0 0.0
2015-Aug-27 15:33N 44°38' W 063°34'0 0.0
2015-Aug-27 14:33N 44°38' W 063°34'0 0.0
2015-Aug-27 13:33N 44°38' W 063°34'1 0.7
2015-Aug-27 12:33N 44°38' W 063°33'10 9.9
2015-Aug-27 11:33N 44°29' W 063°28'1413.8
2015-Aug-27 10:33N 44°15' W 063°32'251 6.1
2015-Aug-25 17:27N 41°14' W 067°28'1415.1
2015-Aug-25 16:33N 41°06' W 067°43'1815.4
2015-Aug-25 15:22N 40°55' W 068°02'1615.8
2015-Aug-25 14:20N 40°46' W 068°20'1215.9
2015-Aug-25 13:33N 40°39' W 068°33'1716.5
2015-Aug-25 12:33N 40°33' W 068°54'1616.5
2015-Aug-25 11:33N 40°27' W 069°14'1616.5
2015-Aug-25 10:33N 40°26' W 069°35'1616.2
2015-Aug-25 09:33N 40°25' W 069°57'1615.9
2015-Aug-25 08:33N 40°25' W 070°18'1615.8
2015-Aug-25 07:33N 40°25' W 070°38'1616.0
2015-Aug-25 06:34N 40°24' W 070°59'1616.3
2015-Aug-25 05:33N 40°24' W 071°21'1616.3
2015-Aug-25 04:34N 40°23' W 071°42'1616.1
2015-Aug-25 03:34N 40°23' W 072°03'1616.2
2015-Aug-25 02:33N 40°23' W 072°24'1616.2
2015-Aug-25 01:33N 40°22' W 072°46'1615.9
2015-Aug-25 00:33N 40°22' W 073°07'1616.0
2015-Aug-24 23:34N 40°24' W 073°27'1615.5
2015-Aug-24 22:33N 40°27' W 073°47'1313.1
2015-Aug-24 21:34N 40°34' W 074°02'1212.0
2015-Aug-24 20:33N 40°46' W 074°01'1 0.6
2015-Aug-24 19:31N 40°46' W 073°60'0 0.0
2015-Aug-24 18:31N 40°46' W 073°60'0 0.0
2015-Aug-24 17:33N 40°46' W 073°60'0 0.0
2015-Aug-24 16:33N 40°46' W 073°60'0 0.0
2015-Aug-24 15:32N 40°46' W 073°60'0 0.0
2015-Aug-24 14:32N 40°46' W 073°60'0 0.0
2015-Aug-24 13:32N 40°46' W 073°60'0 0.0
2015-Aug-24 12:32N 40°46' W 073°60'0 0.0
2015-Aug-24 11:31N 40°46' W 073°60'1 1.1
2015-Aug-24 10:33N 40°45' W 074°01'1010.1
2015-Aug-24 09:33N 40°35' W 074°02'1313.2
2015-Aug-24 08:33N 40°27' W 073°48'1312.2
2015-Aug-24 07:30N 40°28' W 073°32'2215.5
2015-Aug-24 06:07N 40°30' W 073°03'915.9
2015-Aug-24 05:32N 40°30' W 072°51'1717.3
2015-Aug-24 04:33N 40°30' W 072°29'1919.0
2015-Aug-24 03:33N 40°31' W 072°04'1919.1
2015-Aug-24 02:34N 40°31' W 071°39'1919.1
2015-Aug-24 01:33N 40°32' W 071°14'1919.1
2015-Aug-24 00:33N 40°32' W 070°49'1919.1
2015-Aug-23 23:33N 40°33' W 070°24'1918.6
2015-Aug-23 22:32N 40°33' W 069°58'1918.5
2015-Aug-23 21:29N 40°34' W 069°33'1616.7
2015-Aug-23 20:31N 40°35' W 069°12'1515.5
2015-Aug-23 19:32N 40°37' W 068°52'1616.0
2015-Aug-23 18:33N 40°40' W 068°31'1715.7
2015-Aug-23 17:27N 40°50' W 068°13'  

Dump ship's entire track history